createdAt,value
2018-05-02T00:00:47.260Z,0.00
2018-05-02T00:01:47.270Z,0.00
2018-05-02T00:02:47.284Z,0.00
2018-05-02T00:03:47.297Z,0.00
2018-05-02T00:04:47.312Z,0.00
2018-05-02T00:05:47.336Z,0.00
2018-05-02T00:06:47.351Z,0.00
2018-05-02T00:07:47.365Z,0.00
2018-05-02T00:08:47.378Z,0.00
2018-05-02T00:09:47.390Z,0.00
2018-05-02T00:10:47.404Z,0.00
2018-05-02T00:11:47.431Z,0.00
2018-05-02T00:12:47.443Z,0.00
2018-05-02T00:13:47.459Z,0.00
2018-05-02T00:14:47.470Z,0.00
2018-05-02T00:15:47.486Z,0.00
2018-05-02T00:16:47.497Z,0.00
2018-05-02T00:17:47.523Z,0.00
2018-05-02T00:18:47.538Z,0.00
2018-05-02T00:19:47.552Z,0.00
2018-05-02T00:20:47.572Z,0.00
2018-05-02T00:21:47.577Z,0.00
2018-05-02T00:22:47.591Z,0.00
2018-05-02T00:23:47.605Z,0.00
2018-05-02T00:24:47.643Z,0.00
2018-05-02T00:25:47.652Z,0.00
2018-05-02T00:26:47.657Z,0.00
2018-05-02T00:27:47.671Z,0.00
2018-05-02T00:28:47.685Z,0.00
2018-05-02T00:29:47.698Z,0.00
2018-05-02T00:30:47.728Z,0.00
2018-05-02T00:31:47.738Z,0.00
2018-05-02T00:32:47.751Z,0.00
2018-05-02T00:33:47.764Z,0.00
2018-05-02T00:34:47.777Z,0.00
2018-05-02T00:35:47.791Z,0.00
2018-05-02T00:36:47.805Z,0.00
2018-05-02T00:37:47.831Z,0.00
2018-05-02T00:38:47.843Z,0.00
2018-05-02T00:39:47.859Z,0.00
2018-05-02T00:40:47.875Z,0.00
2018-05-02T00:41:47.884Z,0.00
2018-05-02T00:42:47.897Z,0.00
2018-05-02T00:43:47.912Z,0.00
2018-05-02T00:44:47.943Z,0.00
2018-05-02T00:45:47.965Z,0.00
2018-05-02T00:46:47.965Z,0.00
2018-05-02T00:47:47.978Z,0.00
2018-05-02T00:48:47.991Z,0.00
2018-05-02T00:49:48.021Z,0.00
2018-05-02T00:50:48.019Z,0.00
2018-05-02T00:51:48.045Z,0.00
2018-05-02T00:52:48.058Z,0.00
2018-05-02T00:53:48.071Z,0.00
2018-05-02T00:54:48.086Z,0.00
2018-05-02T00:55:48.099Z,0.00
2018-05-02T00:56:48.110Z,0.00
2018-05-02T00:57:48.125Z,0.00
2018-05-02T00:58:48.155Z,0.00
2018-05-02T00:59:48.164Z,0.00
2018-05-02T01:00:48.178Z,0.00
2018-05-02T01:01:48.191Z,0.00
2018-05-02T01:02:48.205Z,0.00
2018-05-02T01:03:48.222Z,0.00
2018-05-02T01:04:48.232Z,0.00
2018-05-02T01:05:48.244Z,0.00
2018-05-02T01:06:48.270Z,0.00
2018-05-02T01:07:48.286Z,0.00
2018-05-02T01:08:48.297Z,0.00
2018-05-02T01:09:48.314Z,0.00
2018-05-02T01:10:48.332Z,0.00
2018-05-02T01:11:48.338Z,0.00
2018-05-02T01:12:48.352Z,0.00
2018-05-02T01:13:48.365Z,0.00
2018-05-02T01:14:48.392Z,0.00
2018-05-02T01:15:48.407Z,0.00
2018-05-02T01:16:48.418Z,0.00
2018-05-02T01:17:48.430Z,0.00
2018-05-02T01:18:48.445Z,0.00
2018-05-02T01:19:48.457Z,0.00
2018-05-02T01:20:48.473Z,0.00
2018-05-02T01:21:48.498Z,0.00
2018-05-02T01:22:48.516Z,0.00
2018-05-02T01:23:48.527Z,0.00
2018-05-02T01:24:48.539Z,0.00
2018-05-02T01:25:48.552Z,0.00
2018-05-02T01:26:48.564Z,0.00
2018-05-02T01:27:48.579Z,0.00
2018-05-02T01:28:48.595Z,0.00
2018-05-02T01:29:48.607Z,0.00
2018-05-02T01:30:48.619Z,0.00
2018-05-02T01:31:48.647Z,0.00
2018-05-02T01:32:48.658Z,0.00
2018-05-02T01:33:48.685Z,0.00
2018-05-02T01:34:48.686Z,0.00
2018-05-02T01:35:48.699Z,0.00
2018-05-02T01:36:48.713Z,0.00
2018-05-02T01:37:48.728Z,0.00
2018-05-02T01:38:48.744Z,0.00
2018-05-02T01:39:48.754Z,0.00
2018-05-02T01:40:48.778Z,0.00
2018-05-02T01:41:48.796Z,0.00
2018-05-02T01:42:48.819Z,0.00
2018-05-02T01:43:48.820Z,0.00
2018-05-02T01:44:48.834Z,0.00
2018-05-02T01:45:48.846Z,0.00
2018-05-02T01:46:48.859Z,0.00
2018-05-02T01:47:48.874Z,0.00
2018-05-02T01:48:48.888Z,0.00
2018-05-02T01:49:48.912Z,0.00
2018-05-02T01:50:48.927Z,0.00
2018-05-02T01:51:48.939Z,0.00
2018-05-02T01:52:48.954Z,0.00
2018-05-02T01:53:48.967Z,0.00
2018-05-02T01:54:48.981Z,0.00
2018-05-02T01:55:49.006Z,0.00
2018-05-02T01:56:49.008Z,0.00
2018-05-02T01:57:49.021Z,0.00
2018-05-02T01:58:49.034Z,0.00
2018-05-02T01:59:49.063Z,0.00
2018-05-02T02:00:49.073Z,0.00
2018-05-02T02:01:49.088Z,0.00
2018-05-02T02:02:49.102Z,0.00
2018-05-02T02:03:49.115Z,0.00
2018-05-02T02:04:49.129Z,0.00
2018-05-02T02:05:49.145Z,0.00
2018-05-02T02:06:49.155Z,0.00
2018-05-02T02:07:49.168Z,0.00
2018-05-02T02:08:49.182Z,0.00
2018-05-02T02:09:49.197Z,0.00
2018-05-02T02:10:49.221Z,0.00
2018-05-02T02:11:49.234Z,0.00
2018-05-02T02:12:49.248Z,0.00
2018-05-02T02:13:49.262Z,0.00
2018-05-02T02:14:49.276Z,0.00
2018-05-02T02:15:49.288Z,0.00
2018-05-02T02:16:49.303Z,0.00
2018-05-02T02:17:49.315Z,0.00
2018-05-02T02:18:49.330Z,0.00
2018-05-02T02:19:49.355Z,0.00
2018-05-02T02:20:49.358Z,0.00
2018-05-02T02:21:49.369Z,0.00
2018-05-02T02:22:49.395Z,0.00
2018-05-02T02:23:49.412Z,0.00
2018-05-02T02:24:49.422Z,0.00
2018-05-02T02:25:49.435Z,0.00
2018-05-02T02:26:49.449Z,0.00
2018-05-02T02:27:49.463Z,0.00
2018-05-02T02:28:49.479Z,0.00
2018-05-02T02:29:49.490Z,0.00
2018-05-02T02:30:49.504Z,0.00
2018-05-02T02:31:49.518Z,0.00
2018-05-02T02:32:49.543Z,0.00
2018-05-02T02:33:49.544Z,0.00
2018-05-02T02:34:49.557Z,0.00
2018-05-02T02:35:49.583Z,0.00
2018-05-02T02:36:49.598Z,0.00
2018-05-02T02:37:49.611Z,0.00
2018-05-02T02:38:49.627Z,0.00
2018-05-02T02:39:49.637Z,0.00
2018-05-02T02:40:49.651Z,0.00
2018-05-02T02:41:49.664Z,0.00
2018-05-02T02:42:49.678Z,0.00
2018-05-02T02:43:49.695Z,0.00
2018-05-02T02:44:49.706Z,0.00
2018-05-02T02:45:49.731Z,0.00
2018-05-02T02:46:49.732Z,0.00
2018-05-02T02:47:49.746Z,0.00
2018-05-02T02:48:49.771Z,0.00
2018-05-02T02:49:49.785Z,0.00
2018-05-02T02:50:49.797Z,0.00
2018-05-02T02:51:49.812Z,0.00
2018-05-02T02:52:49.824Z,0.00
2018-05-02T02:53:49.838Z,0.00
2018-05-02T02:54:49.853Z,0.00
2018-05-02T02:55:49.866Z,4.00
2018-05-02T02:56:49.878Z,4.00
2018-05-02T02:57:49.896Z,4.00
2018-05-02T02:58:49.923Z,0.00
2018-05-02T02:59:49.918Z,4.00
2018-05-02T03:00:49.933Z,4.00
2018-05-02T03:01:49.948Z,4.00
2018-05-02T03:02:49.973Z,4.00
2018-05-02T03:03:49.986Z,4.00
2018-05-02T03:04:50.001Z,8.00
2018-05-02T03:05:50.013Z,8.00
2018-05-02T03:06:50.026Z,8.00
2018-05-02T03:07:50.041Z,8.00
2018-05-02T03:08:50.053Z,12.00
2018-05-02T03:09:50.066Z,12.00
2018-05-02T03:10:50.079Z,16.00
2018-05-02T03:11:50.094Z,16.00
2018-05-02T03:12:50.107Z,20.00
2018-05-02T03:13:50.120Z,24.00
2018-05-02T03:14:50.133Z,28.00
2018-05-02T03:15:50.148Z,32.00
2018-05-02T03:16:50.173Z,36.00
2018-05-02T03:17:50.188Z,36.00
2018-05-02T03:18:50.199Z,44.00
2018-05-02T03:19:50.213Z,52.00
2018-05-02T03:20:50.239Z,56.00
2018-05-02T03:21:50.241Z,64.00
2018-05-02T03:22:50.253Z,72.00
2018-05-02T03:23:50.268Z,76.00
2018-05-02T03:24:50.281Z,88.00
2018-05-02T03:25:50.294Z,96.00
2018-05-02T03:26:50.308Z,108.00
2018-05-02T03:27:50.324Z,120.00
2018-05-02T03:28:50.334Z,132.00
2018-05-02T03:29:50.348Z,144.00
2018-05-02T03:30:50.377Z,156.00
2018-05-02T03:31:50.387Z,172.00
2018-05-02T03:32:50.404Z,192.00
2018-05-02T03:33:50.427Z,204.00
2018-05-02T03:34:50.427Z,228.00
2018-05-02T03:35:50.440Z,248.00
2018-05-02T03:36:50.457Z,268.00
2018-05-02T03:37:50.469Z,292.00
2018-05-02T03:38:50.483Z,316.00
2018-05-02T03:39:50.494Z,340.00
2018-05-02T03:40:50.512Z,364.00
2018-05-02T03:41:50.521Z,392.00
2018-05-02T03:42:50.536Z,420.00
2018-05-02T03:43:50.550Z,452.00
2018-05-02T03:44:50.576Z,484.00
2018-05-02T03:45:50.589Z,520.00
2018-05-02T03:46:50.608Z,560.00
2018-05-02T03:47:50.622Z,608.00
2018-05-02T03:48:50.636Z,652.00
2018-05-02T03:49:50.649Z,704.00
2018-05-02T03:50:50.663Z,752.00
2018-05-02T03:51:50.692Z,804.00
2018-05-02T03:52:50.702Z,856.00
2018-05-02T03:53:50.721Z,908.00
2018-05-02T03:54:50.732Z,960.00
2018-05-02T03:55:50.743Z,1012.00
2018-05-02T03:56:50.756Z,1068.00
2018-05-02T03:57:50.770Z,1124.00
2018-05-02T03:58:50.795Z,1184.00
2018-05-02T03:59:50.809Z,1260.00
2018-05-02T04:00:50.822Z,1328.00
2018-05-02T04:01:50.837Z,1404.00
2018-05-02T04:02:50.849Z,1468.00
2018-05-02T04:03:50.861Z,1532.00
2018-05-02T04:04:50.877Z,1596.00
2018-05-02T04:05:50.890Z,1656.00
2018-05-02T04:06:50.903Z,1696.00
2018-05-02T04:07:50.917Z,1724.00
2018-05-02T04:08:50.931Z,1772.00
2018-05-02T04:09:50.945Z,1824.00
2018-05-02T04:10:50.958Z,1880.00
2018-05-02T04:11:50.984Z,1932.00
2018-05-02T04:12:50.996Z,1984.00
2018-05-02T04:13:51.015Z,2036.00
2018-05-02T04:14:51.027Z,2092.00
2018-05-02T04:15:51.037Z,2152.00
2018-05-02T04:16:51.051Z,2204.00
2018-05-02T04:17:51.065Z,2256.00
2018-05-02T04:18:51.081Z,2308.00
2018-05-02T04:19:51.092Z,2368.00
2018-05-02T04:20:51.104Z,2432.00
2018-05-02T04:21:51.119Z,2504.00
2018-05-02T04:22:51.133Z,2596.00
2018-05-02T04:23:51.158Z,2696.00
2018-05-02T04:24:51.170Z,2784.00
2018-05-02T04:25:51.185Z,2868.00
2018-05-02T04:26:51.197Z,2924.00
2018-05-02T04:27:51.213Z,2940.00
2018-05-02T04:28:51.224Z,2916.00
2018-05-02T04:29:51.238Z,2896.00
2018-05-02T04:30:51.264Z,2848.00
2018-05-02T04:31:51.278Z,2784.00
2018-05-02T04:32:51.294Z,2744.00
2018-05-02T04:33:51.309Z,2740.00
2018-05-02T04:34:51.321Z,2760.00
2018-05-02T04:35:51.333Z,2780.00
2018-05-02T04:36:51.365Z,2780.00
2018-05-02T04:37:51.358Z,2812.00
2018-05-02T04:38:51.372Z,2824.00
2018-05-02T04:39:51.398Z,2792.00
2018-05-02T04:40:51.415Z,2744.00
2018-05-02T04:41:51.425Z,2684.00
2018-05-02T04:42:51.438Z,2644.00
2018-05-02T04:43:51.446Z,2612.00
2018-05-02T04:44:51.460Z,2572.00
2018-05-02T04:45:51.473Z,2540.00
2018-05-02T04:46:51.487Z,2512.00
2018-05-02T04:47:51.512Z,2512.00
2018-05-02T04:48:51.524Z,2556.00
2018-05-02T04:49:51.545Z,2608.00
2018-05-02T04:50:51.552Z,2664.00
2018-05-02T04:51:51.569Z,2724.00
2018-05-02T04:52:51.580Z,2796.00
2018-05-02T04:53:51.592Z,2892.00
2018-05-02T04:54:51.608Z,2964.00
2018-05-02T04:55:51.635Z,3080.00
2018-05-02T04:56:51.645Z,3292.00
2018-05-02T04:57:51.665Z,3592.00
2018-05-02T04:58:51.673Z,4008.00
2018-05-02T04:59:51.687Z,4484.00
2018-05-02T05:00:51.700Z,4956.00
2018-05-02T05:01:51.714Z,5308.00
2018-05-02T05:02:51.740Z,5480.00
2018-05-02T05:03:51.739Z,5532.00
2018-05-02T05:04:51.752Z,5512.00
2018-05-02T05:05:51.766Z,5484.00
2018-05-02T05:06:51.781Z,5432.00
2018-05-02T05:07:51.793Z,5348.00
2018-05-02T05:08:51.819Z,5248.00
2018-05-02T05:09:51.832Z,5160.00
2018-05-02T05:10:51.846Z,5176.00
2018-05-02T05:11:51.860Z,5188.00
2018-05-02T05:12:51.877Z,5112.00
2018-05-02T05:13:51.888Z,5056.00
2018-05-02T05:14:51.913Z,5036.00
2018-05-02T05:15:51.926Z,5036.00
2018-05-02T05:16:51.940Z,5112.00
2018-05-02T05:17:51.952Z,5296.00
2018-05-02T05:18:51.966Z,5624.00
2018-05-02T05:19:52.006Z,6028.00
2018-05-02T05:20:52.007Z,6364.00
2018-05-02T05:21:52.018Z,6700.00
2018-05-02T05:22:52.035Z,6700.00
2018-05-02T05:23:52.061Z,6592.00
2018-05-02T05:24:52.072Z,6672.00
2018-05-02T05:25:52.085Z,6812.00
2018-05-02T05:26:52.099Z,6988.00
2018-05-02T05:27:52.113Z,7196.00
2018-05-02T05:28:52.138Z,7448.00
2018-05-02T05:29:52.152Z,7864.00
2018-05-02T05:30:52.166Z,8508.00
2018-05-02T05:31:52.179Z,9364.00
2018-05-02T05:32:52.205Z,10260.00
2018-05-02T05:33:52.224Z,11080.00
2018-05-02T05:34:52.232Z,11688.00
2018-05-02T05:35:52.258Z,12056.00
2018-05-02T05:36:52.274Z,12188.00
2018-05-02T05:37:52.285Z,12284.00
2018-05-02T05:38:52.299Z,12304.00
2018-05-02T05:39:52.325Z,12264.00
2018-05-02T05:40:52.338Z,12176.00
2018-05-02T05:41:52.352Z,12080.00
2018-05-02T05:42:52.377Z,11968.00
2018-05-02T05:43:52.390Z,11900.00
2018-05-02T05:44:52.405Z,11936.00
2018-05-02T05:45:52.431Z,11992.00
2018-05-02T05:46:52.443Z,12044.00
2018-05-02T05:47:52.470Z,12076.00
2018-05-02T05:48:52.484Z,12192.00
2018-05-02T05:49:52.509Z,12324.00
2018-05-02T05:50:52.523Z,12472.00
2018-05-02T05:51:52.537Z,12672.00
2018-05-02T05:52:52.550Z,12916.00
2018-05-02T05:53:52.578Z,13192.00
2018-05-02T05:54:52.589Z,13340.00
2018-05-02T05:55:52.616Z,13524.00
2018-05-02T05:56:52.628Z,13748.00
2018-05-02T05:57:52.655Z,13812.00
2018-05-02T05:58:52.669Z,14008.00
2018-05-02T05:59:52.684Z,14116.00
2018-05-02T06:00:52.766Z,14392.00
2018-05-02T06:01:52.721Z,14576.00
2018-05-02T06:02:52.748Z,14724.00
2018-05-02T06:03:52.762Z,14884.00
2018-05-02T06:04:52.786Z,14912.00
2018-05-02T06:05:52.801Z,14980.00
2018-05-02T06:06:52.923Z,15148.00
2018-05-02T06:07:52.842Z,15292.00
2018-05-02T06:08:52.866Z,15552.00
2018-05-02T06:09:52.881Z,15876.00
2018-05-02T06:10:52.905Z,16000.00
2018-05-02T06:11:52.919Z,16388.00
2018-05-02T06:12:52.944Z,16292.00
2018-05-02T06:13:52.971Z,16436.00
2018-05-02T06:14:52.989Z,17632.00
2018-05-02T06:15:53.011Z,18560.00
2018-05-02T06:16:53.024Z,17856.00
2018-05-02T06:17:53.050Z,21376.00
2018-05-02T06:18:53.148Z,18368.00
2018-05-02T06:19:53.089Z,19200.00
2018-05-02T06:20:53.115Z,19296.00
2018-05-02T06:21:53.128Z,20704.00
2018-05-02T06:22:53.154Z,23264.00
2018-05-02T06:23:53.169Z,20896.00
2018-05-02T06:24:53.195Z,38144.00
2018-05-02T06:25:53.208Z,19584.00
2018-05-02T06:26:53.233Z,29952.00
2018-05-02T06:27:53.260Z,26624.00
2018-05-02T06:28:53.279Z,21312.00
2018-05-02T06:29:53.299Z,21376.00
2018-05-02T06:30:53.326Z,25408.00
2018-05-02T06:31:53.422Z,23328.00
2018-05-02T06:32:53.363Z,21344.00
2018-05-02T06:33:53.391Z,25248.00
2018-05-02T06:34:53.404Z,26528.00
2018-05-02T06:35:53.432Z,22304.00
2018-05-02T06:36:53.456Z,21984.00
2018-05-02T06:37:53.535Z,29344.00
2018-05-02T06:38:53.496Z,24832.00
2018-05-02T06:39:53.524Z,21760.00
2018-05-02T06:40:53.546Z,21600.00
2018-05-02T06:41:53.560Z,25216.00
2018-05-02T06:42:53.587Z,22688.00
2018-05-02T06:43:53.614Z,22912.00
2018-05-02T06:44:53.627Z,24032.00
2018-05-02T06:45:53.653Z,22048.00
2018-05-02T06:46:53.681Z,27744.00
2018-05-02T06:47:53.704Z,29664.00
2018-05-02T06:48:53.718Z,24640.00
2018-05-02T06:49:53.744Z,24928.00
2018-05-02T06:50:53.843Z,27552.00
2018-05-02T06:51:53.796Z,24608.00
2018-05-02T06:52:53.810Z,24448.00
2018-05-02T06:53:53.834Z,24608.00
2018-05-02T06:54:53.865Z,29376.00
2018-05-02T06:55:53.886Z,26208.00
2018-05-02T06:56:53.926Z,26976.00
2018-05-02T06:57:53.927Z,26112.00
2018-05-02T06:58:53.954Z,26336.00
2018-05-02T06:59:53.978Z,28064.00
2018-05-02T07:00:54.019Z,26816.00
2018-05-02T07:01:54.019Z,25152.00
2018-05-02T07:02:54.043Z,26112.00
2018-05-02T07:03:54.069Z,27296.00
2018-05-02T07:04:54.099Z,25824.00
2018-05-02T07:05:54.122Z,28160.00
2018-05-02T07:06:54.137Z,32512.00
2018-05-02T07:07:54.369Z,31904.00
2018-05-02T07:08:54.191Z,27168.00
2018-05-02T07:09:54.214Z,26272.00
2018-05-02T07:10:54.244Z,29376.00
2018-05-02T07:11:54.268Z,26816.00
2018-05-02T07:12:54.278Z,26304.00
2018-05-02T07:13:54.305Z,28480.00
2018-05-02T07:14:54.337Z,26720.00
2018-05-02T07:15:54.707Z,27072.00
2018-05-02T07:16:54.382Z,27712.00
2018-05-02T07:17:54.411Z,38176.00
2018-05-02T07:18:54.423Z,32384.00
2018-05-02T07:19:54.448Z,35648.00
2018-05-02T07:20:54.475Z,35584.00
2018-05-02T07:21:54.501Z,32000.00
2018-05-02T07:22:54.526Z,29536.00
2018-05-02T07:23:54.553Z,33440.00
2018-05-02T07:24:54.578Z,31776.00
2018-05-02T07:25:54.603Z,37664.00
2018-05-02T07:26:54.616Z,40288.00
2018-05-02T07:27:54.642Z,37536.00
2018-05-02T07:28:54.670Z,32736.00
2018-05-02T07:29:54.695Z,55712.00
2018-05-02T07:30:54.721Z,30912.00
2018-05-02T07:31:54.747Z,32544.00
2018-05-02T07:32:54.828Z,30208.00
2018-05-02T07:33:54.799Z,32928.00
2018-05-02T07:34:54.830Z,32544.00
2018-05-02T07:35:54.850Z,33344.00
2018-05-02T07:36:54.866Z,31904.00
2018-05-02T07:37:54.891Z,34848.00
2018-05-02T07:38:54.916Z,36000.00
2018-05-02T07:39:54.943Z,37216.00
2018-05-02T07:40:54.970Z,37120.00
2018-05-02T07:41:54.994Z,30656.00
2018-05-02T07:42:55.021Z,31712.00
2018-05-02T07:43:55.058Z,33728.00
2018-05-02T07:44:55.074Z,34720.00
2018-05-02T07:45:55.100Z,34944.00
2018-05-02T07:46:55.125Z,41376.00
2018-05-02T07:47:55.150Z,42208.00
2018-05-02T07:48:55.176Z,40416.00
2018-05-02T07:49:55.203Z,38592.00
2018-05-02T07:50:55.228Z,49344.00
2018-05-02T07:51:55.302Z,42048.00
2018-05-02T07:52:55.284Z,37408.00
2018-05-02T07:53:55.311Z,44768.00
2018-05-02T07:54:55.332Z,44160.00
2018-05-02T07:55:55.359Z,44416.00
2018-05-02T07:56:55.385Z,40288.00
2018-05-02T07:57:55.411Z,41824.00
2018-05-02T07:58:55.436Z,39072.00
2018-05-02T07:59:55.462Z,37696.00
2018-05-02T08:00:55.489Z,44320.00
2018-05-02T08:01:55.515Z,39040.00
2018-05-02T08:02:55.541Z,38240.00
2018-05-02T08:03:55.566Z,36896.00
2018-05-02T08:04:55.592Z,38592.00
2018-05-02T08:05:55.618Z,34816.00
2018-05-02T08:06:55.655Z,36832.00
2018-05-02T08:07:55.682Z,33920.00
2018-05-02T08:08:55.709Z,36832.00
2018-05-02T08:09:55.736Z,33600.00
2018-05-02T08:10:55.762Z,32672.00
2018-05-02T08:11:55.785Z,33440.00
2018-05-02T08:12:55.814Z,33440.00
2018-05-02T08:13:55.837Z,33696.00
2018-05-02T08:14:55.864Z,35840.00
2018-05-02T08:15:55.903Z,37632.00
2018-05-02T08:16:55.916Z,37824.00
2018-05-02T08:17:55.942Z,37952.00
2018-05-02T08:18:55.983Z,37568.00
2018-05-02T08:19:56.014Z,37952.00
2018-05-02T08:20:56.033Z,36032.00
2018-05-02T08:21:56.060Z,34496.00
2018-05-02T08:22:56.090Z,32352.00
2018-05-02T08:23:56.113Z,32992.00
2018-05-02T08:24:56.140Z,32736.00
2018-05-02T08:25:56.163Z,32704.00
2018-05-02T08:26:56.189Z,32192.00
2018-05-02T08:27:56.225Z,32000.00
2018-05-02T08:28:56.252Z,31456.00
2018-05-02T08:29:56.290Z,30496.00
2018-05-02T08:30:56.305Z,30112.00
2018-05-02T08:31:56.331Z,29376.00
2018-05-02T08:32:56.379Z,28032.00
2018-05-02T08:33:56.383Z,28384.00
2018-05-02T08:34:56.409Z,28768.00
2018-05-02T08:35:56.435Z,30208.00
2018-05-02T08:36:56.459Z,29696.00
2018-05-02T08:37:56.486Z,29600.00
2018-05-02T08:38:56.560Z,29760.00
2018-05-02T08:39:56.551Z,29504.00
2018-05-02T08:40:56.577Z,29920.00
2018-05-02T08:41:56.603Z,29920.00
2018-05-02T08:42:56.628Z,29600.00
2018-05-02T08:43:56.654Z,30080.00
2018-05-02T08:44:56.681Z,31424.00
2018-05-02T08:45:56.706Z,31328.00
2018-05-02T08:46:56.733Z,29632.00
2018-05-02T08:47:56.961Z,28352.00
2018-05-02T08:48:56.785Z,29664.00
2018-05-02T08:49:56.832Z,32032.00
2018-05-02T08:50:56.836Z,32992.00
2018-05-02T08:51:56.865Z,32896.00
2018-05-02T08:52:56.888Z,32160.00
2018-05-02T08:53:57.117Z,31648.00
2018-05-02T08:54:56.942Z,30560.00
2018-05-02T08:55:56.979Z,28704.00
2018-05-02T08:56:57.004Z,27808.00
2018-05-02T08:57:57.030Z,27296.00
2018-05-02T08:58:57.070Z,26656.00
2018-05-02T08:59:57.082Z,25824.00
2018-05-02T09:00:57.109Z,24608.00
2018-05-02T09:01:57.135Z,23264.00
2018-05-02T09:02:57.162Z,22240.00
2018-05-02T09:03:57.187Z,21536.00
2018-05-02T09:04:57.213Z,20864.00
2018-05-02T09:05:57.237Z,20224.00
2018-05-02T09:06:57.269Z,19616.00
2018-05-02T09:07:57.290Z,18912.00
2018-05-02T09:08:57.323Z,18240.00
2018-05-02T09:09:57.343Z,17536.00
2018-05-02T09:10:57.381Z,16596.00
2018-05-02T09:11:57.757Z,15684.00
2018-05-02T09:12:57.433Z,14904.00
2018-05-02T09:13:57.459Z,14076.00
2018-05-02T09:14:57.503Z,13584.00
2018-05-02T09:15:57.511Z,13352.00
2018-05-02T09:16:57.536Z,13216.00
2018-05-02T09:17:57.564Z,12776.00
2018-05-02T09:18:57.589Z,12236.00
2018-05-02T09:19:57.617Z,11788.00
2018-05-02T09:20:57.643Z,11644.00
2018-05-02T09:21:57.654Z,12000.00
2018-05-02T09:22:57.680Z,11760.00
2018-05-02T09:23:57.706Z,11540.00
2018-05-02T09:24:57.732Z,11672.00
2018-05-02T09:25:57.758Z,11944.00
2018-05-02T09:26:57.784Z,12596.00
2018-05-02T09:27:57.814Z,12752.00
2018-05-02T09:28:57.836Z,12112.00
2018-05-02T09:29:57.862Z,11692.00
2018-05-02T09:30:57.888Z,11352.00
2018-05-02T09:31:57.915Z,10864.00
2018-05-02T09:32:57.940Z,10772.00
2018-05-02T09:33:57.953Z,11312.00
2018-05-02T09:34:57.980Z,12144.00
2018-05-02T09:35:58.006Z,12520.00
2018-05-02T09:36:58.031Z,12328.00
2018-05-02T09:37:58.057Z,12188.00
2018-05-02T09:38:58.084Z,12104.00
2018-05-02T09:39:58.107Z,11856.00
2018-05-02T09:40:58.122Z,11496.00
2018-05-02T09:41:58.148Z,11304.00
2018-05-02T09:42:58.176Z,11256.00
2018-05-02T09:43:58.199Z,11224.00
2018-05-02T09:44:58.237Z,11192.00
2018-05-02T09:45:58.239Z,11200.00
2018-05-02T09:46:58.265Z,11504.00
2018-05-02T09:47:58.291Z,12212.00
2018-05-02T09:48:58.325Z,12876.00
2018-05-02T09:49:58.343Z,13348.00
2018-05-02T09:50:58.369Z,13868.00
2018-05-02T09:51:58.429Z,14624.00
2018-05-02T09:52:58.407Z,15568.00
2018-05-02T09:53:58.434Z,16028.00
2018-05-02T09:54:58.460Z,15740.00
2018-05-02T09:55:58.486Z,15556.00
2018-05-02T09:56:58.500Z,16396.00
2018-05-02T09:57:58.526Z,18272.00
2018-05-02T09:58:58.552Z,19200.00
2018-05-02T09:59:58.579Z,18528.00
2018-05-02T10:00:58.604Z,17664.00
2018-05-02T10:01:58.617Z,16416.00
2018-05-02T10:02:58.647Z,14980.00
2018-05-02T10:04:58.694Z,13392.00
2018-05-02T10:05:58.721Z,13416.00
2018-05-02T10:06:58.735Z,14516.00
2018-05-02T10:07:58.771Z,15984.00
2018-05-02T10:08:58.791Z,17092.00
2018-05-02T10:09:59.015Z,17984.00
2018-05-02T10:10:58.839Z,18144.00
2018-05-02T10:11:58.865Z,17984.00
2018-05-02T10:12:58.877Z,17632.00
2018-05-02T10:13:58.904Z,17792.00
2018-05-02T10:14:58.932Z,18400.00
2018-05-02T10:15:58.956Z,18944.00
2018-05-02T10:16:58.983Z,18464.00
2018-05-02T10:17:59.002Z,18016.00
2018-05-02T10:18:59.023Z,18240.00
2018-05-02T10:19:59.047Z,19040.00
2018-05-02T10:20:59.073Z,19744.00
2018-05-02T10:21:59.099Z,19744.00
2018-05-02T10:22:59.126Z,19392.00
2018-05-02T10:23:59.142Z,19264.00
2018-05-02T10:24:59.167Z,19680.00
2018-05-02T10:25:59.193Z,20736.00
2018-05-02T10:26:59.216Z,21952.00
2018-05-02T10:27:59.241Z,22432.00
2018-05-02T10:28:59.267Z,22016.00
2018-05-02T10:29:59.286Z,21344.00
2018-05-02T10:30:59.307Z,21248.00
2018-05-02T10:31:59.335Z,21312.00
2018-05-02T10:32:59.360Z,20640.00
2018-05-02T10:33:59.386Z,19872.00
2018-05-02T10:34:59.399Z,19776.00
2018-05-02T10:35:59.424Z,20864.00
2018-05-02T10:36:59.560Z,22912.00
2018-05-02T10:37:59.500Z,24448.00
2018-05-02T10:38:59.504Z,25312.00
2018-05-02T10:39:59.528Z,25952.00
2018-05-02T10:40:59.555Z,25536.00
2018-05-02T10:41:59.573Z,24512.00
2018-05-02T10:42:59.595Z,23968.00
2018-05-02T10:43:59.621Z,24448.00
2018-05-02T10:44:59.648Z,25312.00
2018-05-02T10:45:59.673Z,26272.00
2018-05-02T10:46:59.902Z,26720.00
2018-05-02T10:47:59.728Z,26752.00
2018-05-02T10:48:59.751Z,26624.00
2018-05-02T10:49:59.764Z,26432.00
2018-05-02T10:50:59.789Z,25952.00
2018-05-02T10:51:59.817Z,25664.00
2018-05-02T10:52:59.841Z,24608.00
2018-05-02T10:53:59.867Z,24128.00
2018-05-02T10:54:59.894Z,24384.00
2018-05-02T10:55:59.997Z,23936.00
2018-05-02T10:56:59.944Z,22144.00
2018-05-02T10:59:00.000Z,18176.00
2018-05-02T11:00:00.054Z,18784.00
2018-05-02T11:01:00.038Z,22496.00
2018-05-02T11:02:00.064Z,28096.00
2018-05-02T11:03:00.090Z,26240.00
2018-05-02T11:04:00.116Z,26592.00
2018-05-02T11:05:00.142Z,27008.00
2018-05-02T11:06:00.167Z,24160.00
2018-05-02T11:07:00.197Z,22144.00
2018-05-02T11:08:00.220Z,22144.00
2018-05-02T11:09:00.245Z,23648.00
2018-05-02T11:10:00.271Z,24128.00
2018-05-02T11:11:00.297Z,23840.00
2018-05-02T11:12:00.324Z,24480.00
2018-05-02T11:13:00.342Z,29024.00
2018-05-02T11:14:00.362Z,32544.00
2018-05-02T11:15:00.388Z,33088.00
2018-05-02T11:16:00.415Z,31040.00
2018-05-02T11:17:00.441Z,30656.00
2018-05-02T11:18:00.467Z,31712.00
2018-05-02T11:19:00.493Z,31968.00
2018-05-02T11:20:00.518Z,31456.00
2018-05-02T11:21:00.545Z,29568.00
2018-05-02T11:22:00.643Z,29152.00
2018-05-02T11:23:00.596Z,31584.00
2018-05-02T11:24:00.624Z,33088.00
2018-05-02T11:25:00.648Z,32800.00
2018-05-02T11:26:00.673Z,35200.00
2018-05-02T11:27:00.915Z,35904.00
2018-05-02T11:28:00.725Z,33088.00
2018-05-02T11:29:00.751Z,29568.00
2018-05-02T11:30:00.777Z,27360.00
2018-05-02T11:32:00.829Z,27264.00
2018-05-02T11:33:00.855Z,27392.00
2018-05-02T11:34:00.881Z,27552.00
2018-05-02T11:35:00.908Z,27616.00
2018-05-02T11:36:00.935Z,27584.00
2018-05-02T11:37:00.959Z,27424.00
2018-05-02T11:38:00.985Z,26368.00
2018-05-02T11:39:01.011Z,22528.00
2018-05-02T11:40:01.039Z,18336.00
2018-05-02T11:41:01.064Z,16256.00
2018-05-02T11:42:01.102Z,15576.00
2018-05-02T11:43:01.115Z,14824.00
2018-05-02T11:44:01.142Z,13880.00
2018-05-02T11:45:01.167Z,13100.00
2018-05-02T11:46:01.193Z,12476.00
2018-05-02T11:47:01.223Z,12120.00
2018-05-02T11:48:01.247Z,11984.00
2018-05-02T11:49:01.275Z,11948.00
2018-05-02T11:50:01.297Z,12012.00
2018-05-02T11:51:01.324Z,12256.00
2018-05-02T11:52:01.352Z,12656.00
2018-05-02T11:53:01.374Z,12988.00
2018-05-02T11:54:01.402Z,12848.00
2018-05-02T11:55:01.427Z,12172.00
2018-05-02T11:56:01.441Z,11372.00
2018-05-02T11:57:01.471Z,10544.00
2018-05-02T11:58:01.499Z,9756.00
2018-05-02T11:59:01.518Z,9160.00
2018-05-02T12:00:01.544Z,8816.00
2018-05-02T12:01:01.571Z,8720.00
2018-05-02T12:02:01.597Z,8800.00
2018-05-02T12:03:01.623Z,8988.00
2018-05-02T12:04:01.637Z,9236.00
2018-05-02T12:05:01.661Z,9476.00
2018-05-02T12:06:01.687Z,9688.00
2018-05-02T12:07:01.713Z,9772.00
2018-05-02T12:08:01.740Z,9804.00
2018-05-02T12:09:01.778Z,9860.00
2018-05-02T12:10:01.791Z,9960.00
2018-05-02T12:11:01.805Z,10044.00
2018-05-02T12:12:01.836Z,10176.00
2018-05-02T12:13:01.857Z,10376.00
2018-05-02T12:14:01.889Z,10592.00
2018-05-02T12:15:01.909Z,10716.00
2018-05-02T12:16:01.985Z,10656.00
2018-05-02T12:17:01.962Z,10488.00